Time;durP1;ratioP1;P1;durP2;ratioP2;P2;SDS_P1;SDS_P2;PMS_P1;PMS_P2;Temp;Humidity;BMP_temperature;BMP_pressure;BME280_temperature;BME280_humidity;BME280_pressure;Samples;Min_cycle;Max_cycle;Signal;HPM_P1;HPM_P2
2022/02/01 00:02:24;;;;;;;32.20;11.97;;;-1.40;99.90;;;;;;4483696;31;20223;-69
2022/02/01 00:05:07;;;;;;;32.27;12.87;;;-1.40;99.90;;;;;;4468136;32;20236;-69
2022/02/01 00:08:06;;;;;;;29.30;12.23;;;-1.40;99.90;;;;;;4466868;32;20191;-69
2022/02/01 00:33:06;;;;;;;48.50;17.57;;;-1.30;99.90;;;;;;4467356;32;20188;-69
2022/02/01 00:33:17;;;;;;;47.90;18.60;;;-1.30;99.90;;;;;;4467058;32;20170;-68
2022/02/01 00:34:26;;;;;;;38.03;15.77;;;-1.40;99.90;;;;;;4466570;32;20233;-69
2022/02/01 00:36:59;;;;;;;43.43;16.13;;;-1.40;99.90;;;;;;4466890;32;20178;-68
2022/02/01 00:39:32;;;;;;;41.73;15.60;;;-1.40;99.90;;;;;;4466689;32;20191;-69
2022/02/01 00:41:59;;;;;;;34.93;14.27;;;-1.40;99.90;;;;;;4468953;32;20539;-68
2022/02/01 00:44:26;;;;;;;39.27;15.40;;;-1.50;99.90;;;;;;4466019;32;20507;-68
2022/02/01 00:46:53;;;;;;;37.87;15.03;;;-1.50;99.90;;;;;;4466908;32;20158;-68
2022/02/01 00:49:20;;;;;;;35.10;14.57;;;-1.50;99.90;;;;;;4466603;32;20170;-68
2022/02/01 00:51:47;;;;;;;38.17;13.90;;;-1.50;99.90;;;;;;4466091;32;20502;-69
2022/02/01 00:54:15;;;;;;;36.30;13.67;;;-1.60;99.90;;;;;;4465861;32;20690;-68
2022/02/01 00:56:43;;;;;;;36.27;14.07;;;-1.60;99.90;;;;;;4467547;32;20165;-68
2022/02/01 00:59:10;;;;;;;34.70;14.60;;;-1.60;99.90;;;;;;4466521;32;20192;-68
2022/02/01 01:01:37;;;;;;;32.03;14.07;;;-1.50;99.90;;;;;;4467098;32;20418;-69
2022/02/01 01:04:04;;;;;;;35.87;13.80;;;-1.50;99.90;;;;;;4466534;32;20230;-68
2022/02/01 01:06:32;;;;;;;34.70;13.47;;;-1.40;99.90;;;;;;4466395;32;20201;-69
2022/02/01 01:08:59;;;;;;;33.83;13.03;;;-1.50;99.90;;;;;;4466161;32;20179;-68
2022/02/01 01:11:26;;;;;;;29.77;12.50;;;-1.50;99.90;;;;;;4466018;32;20194;-69
2022/02/01 01:43:54;;;;;;;31.23;11.40;;;-1.50;99.90;;;;;;4456138;32;20178;-68
2022/02/01 01:54:25;;;;;;;28.63;10.47;;;-1.60;99.90;;;;;;4456144;32;20166;-69
2022/02/01 01:56:54;;;;;;;25.20;10.57;;;-1.50;99.90;;;;;;4456554;32;20245;-68
2022/02/01 01:59:23;;;;;;;22.80;9.80;;;-1.50;99.90;;;;;;4455121;32;20186;-68
2022/02/01 02:01:50;;;;;;;26.40;9.67;;;-1.50;99.90;;;;;;4455846;32;20196;-68
2022/02/01 02:04:18;;;;;;;25.57;9.70;;;-1.50;99.90;;;;;;4455450;32;20230;-69
2022/02/01 02:06:46;;;;;;;25.07;9.83;;;-1.60;99.90;;;;;;4454788;32;20213;-69
2022/02/01 02:09:13;;;;;;;25.87;9.93;;;-1.50;99.90;;;;;;4455350;32;20170;-69
2022/02/01 02:11:55;;;;;;;27.03;9.70;;;-1.50;99.90;;;;;;4455425;32;20205;-68
2022/02/01 02:14:24;;;;;;;21.07;9.47;;;-1.60;99.90;;;;;;4455293;32;20174;-68
2022/02/01 02:16:52;;;;;;;25.47;10.23;;;-1.50;99.90;;;;;;4455728;32;20174;-69
2022/02/01 02:19:21;;;;;;;26.03;9.57;;;-1.50;99.90;;;;;;4455826;32;20169;-68
2022/02/01 02:21:51;;;;;;;22.70;9.10;;;-1.60;99.90;;;;;;4454808;32;20190;-68
2022/02/01 02:24:19;;;;;;;25.40;9.47;;;-1.60;99.90;;;;;;4454003;32;20257;-68
2022/02/01 02:26:48;;;;;;;20.27;8.27;;;-1.60;99.90;;;;;;4454467;32;20253;-68
2022/02/01 02:29:16;;;;;;;25.23;8.77;;;-1.60;99.90;;;;;;4454635;32;20202;-69
2022/02/01 02:31:43;;;;;;;24.67;8.50;;;-1.50;99.90;;;;;;4456120;32;20256;-68
2022/02/01 02:34:15;;;;;;;20.07;8.20;;;-1.50;99.90;;;;;;4457095;32;20161;-68
2022/02/01 02:36:49;;;;;;;21.37;7.97;;;-1.40;99.90;;;;;;4454379;32;20250;-69
2022/02/01 02:42:05;;;;;;;20.00;8.30;;;-1.50;99.90;;;;;;4454589;32;20196;-68
2022/02/01 02:47:18;;;;;;;18.07;7.27;;;-1.50;99.90;;;;;;4453807;32;20178;-69
2022/02/01 02:49:46;;;;;;;17.43;6.90;;;-1.50;99.90;;;;;;4454810;32;20202;-68
2022/02/01 02:52:13;;;;;;;18.50;7.37;;;-1.40;99.90;;;;;;4453880;32;20212;-68
2022/02/01 02:54:41;;;;;;;16.93;6.50;;;-1.40;99.90;;;;;;4454446;32;20181;-68
2022/02/01 02:57:08;;;;;;;14.13;6.10;;;-1.40;99.90;;;;;;4453768;32;20200;-68
2022/02/01 02:59:37;;;;;;;14.73;5.80;;;-1.30;99.90;;;;;;4453750;32;20642;-69
2022/02/01 03:02:06;;;;;;;14.53;5.70;;;-1.40;99.90;;;;;;4453698;32;20177;-68
2022/02/01 03:04:35;;;;;;;14.17;5.10;;;-1.40;99.90;;;;;;4454945;32;20168;-68
2022/02/01 03:07:05;;;;;;;11.33;4.60;;;-1.50;99.90;;;;;;4454314;32;20234;-68
2022/02/01 03:09:35;;;;;;;13.30;4.73;;;-1.50;99.90;;;;;;4455128;32;20216;-68
2022/02/01 03:12:03;;;;;;;9.90;4.43;;;-1.50;99.90;;;;;;4454276;32;20173;-69
2022/02/01 03:14:53;;;;;;;10.87;4.27;;;-1.50;99.90;;;;;;4453656;32;20193;-69
2022/02/01 03:19:50;;;;;;;8.70;4.13;;;-1.50;99.90;;;;;;4456169;32;20161;-69
2022/02/01 03:22:36;;;;;;;14.83;4.70;;;-1.40;99.90;;;;;;4453745;32;20208;-68
2022/02/01 03:25:04;;;;;;;10.70;4.37;;;-1.30;99.90;;;;;;4454681;32;20257;-68
2022/02/01 03:27:31;;;;;;;12.33;3.90;;;-1.40;99.90;;;;;;4453688;32;20175;-68
2022/02/01 03:29:59;;;;;;;13.73;4.60;;;-1.30;99.90;;;;;;4453163;32;20166;-68
2022/02/01 03:32:25;;;;;;;10.70;4.50;;;-1.30;99.90;;;;;;4454887;32;20189;-68
2022/02/01 03:34:53;;;;;;;10.27;4.43;;;-1.30;99.90;;;;;;4453947;32;20241;-68
2022/02/01 03:37:21;;;;;;;12.80;4.73;;;-1.30;99.90;;;;;;4453561;32;20209;-68
2022/02/01 03:39:48;;;;;;;13.57;4.80;;;-1.30;99.90;;;;;;4453875;32;20167;-68
2022/02/01 03:42:15;;;;;;;12.80;4.37;;;-1.40;99.90;;;;;;4454821;32;20447;-68
2022/02/01 03:44:42;;;;;;;13.60;5.67;;;-1.40;99.90;;;;;;4453535;32;20204;-68
2022/02/01 03:47:09;;;;;;;13.43;6.00;;;-1.40;99.90;;;;;;4454002;32;20233;-68
2022/02/01 03:49:39;;;;;;;14.40;6.03;;;-1.40;99.90;;;;;;4454764;32;20170;-68
2022/02/01 03:52:08;;;;;;;14.87;5.47;;;-1.50;99.90;;;;;;4453708;32;20233;-68
2022/02/01 03:54:36;;;;;;;16.67;6.60;;;-1.50;99.90;;;;;;4453120;32;20178;-68
2022/02/01 03:57:05;;;;;;;16.40;6.83;;;-1.50;99.90;;;;;;4453652;32;20265;-68
2022/02/01 03:59:32;;;;;;;16.80;6.60;;;-1.60;99.90;;;;;;4455400;32;20143;-69
2022/02/01 04:02:00;;;;;;;18.07;7.10;;;-1.60;99.90;;;;;;4454708;32;20170;-68
2022/02/01 04:04:30;;;;;;;16.73;6.23;;;-1.70;99.90;;;;;;4453120;32;20189;-68
2022/02/01 04:06:58;;;;;;;14.40;6.73;;;-1.70;99.90;;;;;;4453210;32;20194;-68
2022/02/01 04:09:27;;;;;;;16.00;6.63;;;-1.80;99.90;;;;;;4454314;32;20629;-68
2022/02/01 04:11:57;;;;;;;14.87;6.60;;;-1.80;99.90;;;;;;4454799;32;20164;-68
2022/02/01 04:14:27;;;;;;;18.43;7.27;;;-1.90;99.90;;;;;;4453516;32;20202;-68
2022/02/01 04:16:56;;;;;;;18.73;7.37;;;-1.80;99.90;;;;;;4453437;32;20189;-68
2022/02/01 04:19:24;;;;;;;16.67;7.10;;;-2.00;99.90;;;;;;4454046;32;20260;-68
2022/02/01 04:21:57;;;;;;;17.47;7.43;;;-2.00;99.90;;;;;;4452960;32;20201;-68
2022/02/01 04:24:24;;;;;;;18.67;7.73;;;-2.10;99.90;;;;;;4454603;32;20182;-68
2022/02/01 04:26:51;;;;;;;16.53;7.70;;;-2.10;99.90;;;;;;4452851;32;20176;-68
2022/02/01 04:29:18;;;;;;;19.10;7.63;;;-2.10;99.90;;;;;;4453453;32;20294;-68
2022/02/01 04:31:45;;;;;;;19.97;8.20;;;-2.10;99.90;;;;;;4453758;32;20173;-68
2022/02/01 04:34:13;;;;;;;19.13;7.87;;;-2.10;99.90;;;;;;4452805;32;20200;-68
2022/02/01 04:36:40;;;;;;;23.53;8.30;;;-2.10;99.90;;;;;;4453721;32;20441;-68
2022/02/01 04:39:07;;;;;;;17.00;7.90;;;-2.20;99.90;;;;;;4452751;32;20170;-68
2022/02/01 04:41:34;;;;;;;18.47;7.70;;;-2.20;99.90;;;;;;4454340;32;20394;-68
2022/02/01 04:44:02;;;;;;;17.83;7.57;;;-2.10;99.90;;;;;;4453167;32;20178;-68
2022/02/01 04:46:29;;;;;;;19.87;7.90;;;-2.20;99.90;;;;;;4453503;32;20162;-68
2022/02/01 04:49:00;;;;;;;20.60;8.43;;;-2.20;99.90;;;;;;4457161;32;20462;-68
2022/02/01 04:51:27;;;;;;;21.17;8.20;;;-2.10;99.90;;;;;;4455705;32;20170;-68
2022/02/01 04:53:55;;;;;;;20.40;8.43;;;-2.10;99.90;;;;;;4456650;32;20524;-68
2022/02/01 04:56:22;;;;;;;21.83;8.43;;;-2.20;99.90;;;;;;4457165;32;20171;-68
2022/02/01 04:58:49;;;;;;;17.23;8.07;;;-2.20;99.90;;;;;;4457154;32;20484;-68
2022/02/01 05:01:17;;;;;;;20.93;8.30;;;-2.20;99.90;;;;;;4456849;32;20519;-69
2022/02/01 05:03:44;;;;;;;17.70;8.00;;;-2.20;99.90;;;;;;4455502;32;20509;-68
2022/02/01 05:06:13;;;;;;;20.47;8.30;;;-2.20;99.90;;;;;;4456273;32;20556;-68
2022/02/01 05:08:42;;;;;;;19.00;7.83;;;-2.30;99.90;;;;;;4456583;32;20217;-68
2022/02/01 05:11:09;;;;;;;21.47;8.53;;;-2.30;99.90;;;;;;4456000;32;20548;-68
2022/02/01 05:16:41;;;;;;;21.50;8.33;;;-2.40;99.90;;;;;;4455808;32;20234;-68
2022/02/01 05:19:12;;;;;;;20.73;9.10;;;-2.50;99.90;;;;;;4456577;32;20259;-68
2022/02/01 05:21:40;;;;;;;21.20;8.80;;;-2.50;99.90;;;;;;4455733;32;20507;-68
2022/02/01 05:24:10;;;;;;;22.23;8.93;;;-2.50;99.90;;;;;;4456686;32;20198;-68
2022/02/01 05:26:37;;;;;;;24.47;9.03;;;-2.50;99.90;;;;;;4456590;32;20208;-68
2022/02/01 05:29:05;;;;;;;21.57;9.37;;;-2.60;99.90;;;;;;4455298;32;20568;-68
2022/02/01 05:31:32;;;;;;;22.57;9.37;;;-2.60;99.90;;;;;;4456306;32;20698;-68
2022/02/01 05:33:59;;;;;;;24.40;9.90;;;-2.60;99.90;;;;;;4455010;32;20548;-68
2022/02/01 05:36:27;;;;;;;23.47;9.73;;;-2.60;99.90;;;;;;4456890;32;20443;-68
2022/02/01 05:38:54;;;;;;;22.67;10.03;;;-2.60;99.90;;;;;;4456375;32;20498;-68
2022/02/01 05:41:25;;;;;;;23.00;9.63;;;-2.60;99.90;;;;;;4457514;32;20480;-69
2022/02/01 05:43:52;;;;;;;26.63;9.73;;;-2.60;99.90;;;;;;4455212;32;20176;-68
2022/02/01 05:46:19;;;;;;;22.10;9.03;;;-2.70;99.90;;;;;;4455587;32;20194;-68
2022/02/01 05:48:46;;;;;;;23.77;10.23;;;-2.70;99.90;;;;;;4455497;32;20482;-68
2022/02/01 05:51:13;;;;;;;25.43;9.60;;;-2.70;99.90;;;;;;4455176;32;20177;-68
2022/02/01 05:53:40;;;;;;;23.13;9.93;;;-2.70;99.90;;;;;;4457438;32;20437;-68
2022/02/01 05:56:07;;;;;;;23.43;9.80;;;-2.80;99.90;;;;;;4455500;32;20229;-68
2022/02/01 05:58:34;;;;;;;24.33;10.27;;;-2.80;99.90;;;;;;4454796;32;20162;-68
2022/02/01 06:01:01;;;;;;;23.90;9.70;;;-2.90;99.90;;;;;;4456205;32;20458;-68
2022/02/01 06:03:29;;;;;;;25.00;10.33;;;-2.90;99.90;;;;;;4454593;32;20170;-68
2022/02/01 06:05:56;;;;;;;22.80;10.40;;;-2.90;99.90;;;;;;4455211;32;20496;-68
2022/02/01 06:08:28;;;;;;;29.13;11.47;;;-2.90;99.90;;;;;;4457499;32;20417;-68
2022/02/01 06:10:55;;;;;;;26.17;11.67;;;-2.90;99.90;;;;;;4455991;32;20176;-68
2022/02/01 06:13:22;;;;;;;26.70;11.77;;;-2.90;99.90;;;;;;4454448;32;20227;-68
2022/02/01 06:15:49;;;;;;;31.00;12.77;;;-2.90;99.90;;;;;;4454696;32;20431;-68
2022/02/01 06:18:16;;;;;;;29.67;12.50;;;-2.90;99.90;;;;;;4454907;32;20499;-68
2022/02/01 06:20:44;;;;;;;33.30;13.60;;;-2.90;99.90;;;;;;4454547;32;20600;-68
2022/02/01 06:23:15;;;;;;;30.53;12.97;;;-2.90;99.90;;;;;;4454611;32;20519;-69
2022/02/01 06:28:10;;;;;;;30.43;13.60;;;-3.00;99.90;;;;;;4455145;32;20174;-68
2022/02/01 06:30:37;;;;;;;31.60;14.00;;;-3.00;99.90;;;;;;4456982;32;20190;-68
2022/02/01 06:33:04;;;;;;;30.67;13.97;;;-3.00;99.90;;;;;;4453993;32;20519;-68
2022/02/01 06:35:30;;;;;;;31.20;13.70;;;-3.10;99.90;;;;;;4454347;32;20197;-68
2022/02/01 06:37:57;;;;;;;33.53;13.97;;;-3.00;99.90;;;;;;4455512;32;20247;-68
2022/02/01 06:40:24;;;;;;;34.53;13.57;;;-3.00;99.90;;;;;;4454515;32;20166;-68
2022/02/01 06:42:52;;;;;;;37.17;15.20;;;-3.00;99.90;;;;;;4455482;32;20199;-68
2022/02/01 06:45:19;;;;;;;34.77;14.00;;;-3.00;99.90;;;;;;4454423;32;20193;-68
2022/02/01 06:47:47;;;;;;;35.30;14.50;;;-3.00;99.90;;;;;;4456089;32;20402;-68
2022/02/01 06:50:19;;;;;;;34.50;13.83;;;-2.90;99.90;;;;;;4454405;32;20246;-68
2022/02/01 06:52:59;;;;;;;32.70;14.40;;;-2.90;99.90;;;;;;4455333;32;20170;-68
2022/02/01 06:58:11;;;;;;;32.57;14.17;;;-2.80;99.90;;;;;;4455779;32;20192;-68
2022/02/01 07:00:39;;;;;;;32.20;14.00;;;-2.80;99.90;;;;;;4453922;32;20558;-68
2022/02/01 07:03:06;;;;;;;31.50;13.87;;;-2.70;99.90;;;;;;4454273;32;20186;-69
2022/02/01 07:05:33;;;;;;;31.13;14.67;;;-2.60;99.90;;;;;;4454064;32;20166;-68
2022/02/01 07:08:00;;;;;;;35.23;14.30;;;-2.60;99.90;;;;;;4454986;32;20226;-68
2022/02/01 07:10:27;;;;;;;29.60;13.33;;;-2.60;99.90;;;;;;4456360;32;20183;-68
2022/02/01 07:12:54;;;;;;;33.53;13.43;;;-2.50;99.90;;;;;;4453682;32;20170;-68
2022/02/01 07:15:21;;;;;;;27.83;12.90;;;-2.40;99.90;;;;;;4454399;32;20170;-68
2022/02/01 07:17:53;;;;;;;32.30;13.70;;;-2.40;99.90;;;;;;4454054;32;20179;-69
2022/02/01 07:20:21;;;;;;;28.93;12.97;;;-2.40;99.90;;;;;;4455113;32;20145;-68
2022/02/01 07:22:49;;;;;;;29.03;13.10;;;-2.40;99.90;;;;;;4454728;32;20227;-68
2022/02/01 07:25:31;;;;;;;34.27;13.10;;;-2.40;99.90;;;;;;4454172;32;20234;-68
2022/02/01 07:28:04;;;;;;;29.73;13.40;;;-2.40;99.90;;;;;;4454587;32;20208;-67
2022/02/01 07:30:31;;;;;;;26.90;12.07;;;-2.30;99.90;;;;;;4456235;32;20153;-68
2022/02/01 07:33:00;;;;;;;29.07;12.17;;;-2.30;99.90;;;;;;4453235;32;20193;-68
2022/02/01 07:35:30;;;;;;;25.13;11.97;;;-2.30;99.90;;;;;;4454642;32;20219;-68
2022/02/01 07:37:59;;;;;;;28.63;12.37;;;-2.20;99.90;;;;;;4455066;32;20201;-68
2022/02/01 07:40:26;;;;;;;21.33;10.40;;;-2.20;99.90;;;;;;4455375;32;20394;-68
2022/02/01 07:42:54;;;;;;;30.23;11.40;;;-2.20;99.90;;;;;;4452897;32;20186;-67
2022/02/01 07:45:25;;;;;;;27.37;11.90;;;-2.10;99.90;;;;;;4453826;32;20166;-68
2022/02/01 07:48:03;;;;;;;24.43;11.37;;;-2.10;99.90;;;;;;4421491;32;20170;-68
2022/02/01 07:50:33;;;;;;;24.20;11.20;;;-2.10;99.90;;;;;;4409148;32;20174;-68
2022/02/01 07:53:00;;;;;;;27.20;11.87;;;-2.00;99.90;;;;;;4396424;32;20626;-67
2022/02/01 07:55:27;;;;;;;25.47;11.10;;;-2.00;99.90;;;;;;4410462;32;20211;-68
2022/02/01 07:57:54;;;;;;;26.03;11.37;;;-1.90;99.90;;;;;;4410794;32;20193;-68
2022/02/01 08:00:22;;;;;;;26.20;11.07;;;-1.90;99.90;;;;;;4408713;32;20182;-68
2022/02/01 08:02:54;;;;;;;29.10;10.87;;;-1.80;99.90;;;;;;4409832;32;20194;-68
2022/02/01 08:05:28;;;;;;;25.90;10.97;;;-1.80;99.90;;;;;;4417361;32;20191;-67
2022/02/01 08:07:57;;;;;;;25.87;10.67;;;-1.60;99.90;;;;;;4456301;32;20131;-68
2022/02/01 08:10:27;;;;;;;28.40;10.63;;;-1.50;99.90;;;;;;4453794;32;20173;-68
2022/02/01 08:21:03;;;;;;;25.20;10.80;;;-0.80;99.90;;;;;;4454781;32;20212;-68
2022/02/01 08:23:25;;;;;;;27.83;10.70;;;-0.30;99.90;;;;;;4457038;32;20182;-68
2022/02/01 08:25:53;;;;;;;25.43;11.43;;;-0.10;99.90;;;;;;4457410;32;20220;-67
2022/02/01 08:28:21;;;;;;;24.97;10.67;;;-0.10;99.90;;;;;;4454545;32;20469;-68
2022/02/01 08:30:53;;;;;;;27.37;10.80;;;-0.10;99.90;;;;;;4448499;32;20202;-68
2022/02/01 08:33:22;;;;;;;26.63;10.63;;;-0.20;99.90;;;;;;4440100;32;20192;-67
2022/02/01 08:35:50;;;;;;;21.43;10.27;;;-0.10;99.90;;;;;;4440488;32;20178;-68
2022/02/01 08:38:18;;;;;;;24.10;10.67;;;0.00;99.90;;;;;;4441545;32;20201;-67
2022/02/01 08:40:47;;;;;;;25.27;10.77;;;0.10;99.90;;;;;;4441925;32;20426;-70
2022/02/01 08:43:16;;;;;;;28.13;11.43;;;0.40;99.90;;;;;;4440350;32;20192;-69
2022/02/01 08:45:47;;;;;;;19.23;9.40;;;0.50;99.90;;;;;;4441869;32;20421;-67
2022/02/01 08:48:15;;;;;;;19.83;9.70;;;0.40;99.90;;;;;;4440016;32;20248;-68
2022/02/01 08:50:42;;;;;;;26.87;11.00;;;0.20;99.90;;;;;;4441738;32;20189;-67
2022/02/01 08:53:25;;;;;;;21.13;9.30;;;0.10;99.90;;;;;;4441051;32;20203;-68
2022/02/01 08:58:20;;;;;;;23.80;9.27;;;0.30;99.90;;;;;;4442217;32;20190;-68
2022/02/01 09:00:48;;;;;;;20.37;9.27;;;0.30;99.90;;;;;;4440085;32;20212;-69
2022/02/01 09:03:15;;;;;;;20.57;8.70;;;0.00;99.90;;;;;;4441771;32;20178;-68
2022/02/01 09:05:51;;;;;;;17.97;8.70;;;-0.10;99.90;;;;;;4440007;32;20173;-69
2022/02/01 09:08:21;;;;;;;21.27;8.80;;;0.00;99.90;;;;;;4440266;32;20189;-69
2022/02/01 09:10:48;;;;;;;21.07;9.13;;;0.10;99.90;;;;;;4440261;32;20204;-68
2022/02/01 09:13:15;;;;;;;23.57;9.60;;;0.00;99.90;;;;;;4441588;32;20221;-69
2022/02/01 09:15:41;;;;;;;20.77;8.60;;;-0.10;99.90;;;;;;4440923;32;20212;-69
2022/02/01 09:18:08;;;;;;;21.07;8.83;;;0.00;99.90;;;;;;4440193;32;20159;-69
2022/02/01 09:20:35;;;;;;;20.03;8.77;;;0.20;99.90;;;;;;4441128;32;20170;-68
2022/02/01 09:23:03;;;;;;;20.93;8.43;;;0.30;99.90;;;;;;4439759;32;20181;-69
2022/02/01 09:25:30;;;;;;;20.80;8.60;;;0.30;99.90;;;;;;4440116;32;20182;-69
2022/02/01 09:27:59;;;;;;;18.53;8.50;;;0.50;99.90;;;;;;4442986;32;20174;-69
2022/02/01 09:30:27;;;;;;;21.23;8.60;;;0.50;99.90;;;;;;4440861;32;20199;-70
2022/02/01 09:32:54;;;;;;;20.97;8.37;;;0.60;99.90;;;;;;4440863;32;20556;-69
2022/02/01 09:35:22;;;;;;;15.07;7.17;;;0.40;99.90;;;;;;4441134;32;20179;-70
2022/02/01 09:37:49;;;;;;;19.07;7.70;;;0.40;99.90;;;;;;4441506;32;20519;-70
2022/02/01 09:40:36;;;;;;;17.13;7.00;;;0.50;99.90;;;;;;4441392;32;20200;-71
2022/02/01 09:43:03;;;;;;;15.73;6.77;;;0.60;99.90;;;;;;4441002;32;20178;-71
2022/02/01 09:45:34;;;;;;;16.10;7.00;;;0.60;99.90;;;;;;4441366;32;20223;-68
2022/02/01 09:48:06;;;;;;;15.87;7.60;;;0.60;99.90;;;;;;4441025;32;20142;-67
2022/02/01 09:50:34;;;;;;;15.13;6.53;;;0.40;99.90;;;;;;4440494;32;20185;-67
2022/02/01 09:53:02;;;;;;;15.40;6.60;;;0.50;99.90;;;;;;4439501;32;20500;-68
2022/02/01 09:55:30;;;;;;;13.73;6.20;;;0.50;99.90;;;;;;4441157;32;20142;-70
2022/02/01 09:57:57;;;;;;;15.47;6.73;;;0.50;99.90;;;;;;4440664;32;20442;-69
2022/02/01 10:00:35;;;;;;;16.40;6.70;;;0.50;99.90;;;;;;4439733;32;20185;-70
2022/02/01 10:03:04;;;;;;;17.17;6.50;;;0.40;99.90;;;;;;4439297;32;20170;-69
2022/02/01 10:05:35;;;;;;;19.00;7.37;;;0.40;99.90;;;;;;4439538;32;20210;-69
2022/02/01 10:08:03;;;;;;;16.93;7.23;;;0.40;99.90;;;;;;4440752;32;20197;-70
2022/02/01 10:10:33;;;;;;;21.23;7.30;;;0.50;99.90;;;;;;4439064;32;20593;-70
2022/02/01 10:13:13;;;;;;;17.50;7.40;;;0.50;99.90;;;;;;4439444;32;20201;-68
2022/02/01 10:16:01;;;;;;;17.37;7.13;;;0.40;99.90;;;;;;4439087;32;20178;-68
2022/02/01 10:18:32;;;;;;;15.30;7.00;;;0.50;99.90;;;;;;4439286;32;20174;-68
2022/02/01 10:21:14;;;;;;;17.33;7.57;;;0.50;99.90;;;;;;4439678;32;20173;-69
2022/02/01 10:23:45;;;;;;;17.60;7.40;;;0.50;99.90;;;;;;4440223;32;20233;-72
2022/02/01 10:26:13;;;;;;;17.73;7.20;;;0.50;99.90;;;;;;4438910;32;20178;-70
2022/02/01 10:31:26;;;;;;;12.93;5.93;;;0.70;99.90;;;;;;4439907;32;20225;-68
2022/02/01 10:34:03;;;;;;;14.43;5.90;;;0.80;99.90;;;;;;4438946;32;20250;-70
2022/02/01 10:36:39;;;;;;;13.80;5.87;;;0.90;99.90;;;;;;4438842;32;20182;-70
2022/02/01 10:39:24;;;;;;;13.10;5.80;;;1.00;99.90;;;;;;4439849;32;20254;-71
2022/02/01 10:41:56;;;;;;;12.53;5.73;;;1.10;99.90;;;;;;4444055;32;20497;-69
2022/02/01 10:44:35;;;;;;;13.07;5.33;;;1.10;99.90;;;;;;4442513;32;20174;-70
2022/02/01 10:47:06;;;;;;;13.20;5.27;;;1.30;99.90;;;;;;4438179;32;20170;-72
2022/02/01 10:49:53;;;;;;;16.47;6.13;;;1.40;99.90;;;;;;4439485;32;20231;-71
2022/02/01 10:52:20;;;;;;;14.43;5.93;;;1.50;99.90;;;;;;4439052;32;20166;-72
2022/02/01 10:54:47;;;;;;;13.87;6.20;;;1.60;99.90;;;;;;4440232;32;20185;-72
2022/02/01 10:57:15;;;;;;;15.50;6.27;;;1.60;99.90;;;;;;4438813;32;20174;-72
2022/02/01 10:59:42;;;;;;;15.33;5.97;;;1.70;99.90;;;;;;4439448;32;20167;-72
2022/02/01 11:02:10;;;;;;;16.00;5.90;;;1.50;99.90;;;;;;4440112;32;20166;-72
2022/02/01 11:04:38;;;;;;;15.30;5.50;;;1.70;99.90;;;;;;4446003;32;20170;-72
2022/02/01 11:07:07;;;;;;;12.33;5.13;;;1.80;99.90;;;;;;4437956;32;20170;-72
2022/02/01 11:09:36;;;;;;;15.53;5.93;;;1.80;99.90;;;;;;4438319;32;20205;-72
2022/02/01 11:12:13;;;;;;;13.13;5.40;;;1.60;99.90;;;;;;4437946;32;20572;-72
2022/02/01 11:14:41;;;;;;;12.17;5.03;;;1.40;99.90;;;;;;4438471;32;20559;-72
2022/02/01 11:17:16;;;;;;;11.80;5.30;;;1.50;99.90;;;;;;4438112;32;20580;-71
2022/02/01 11:19:57;;;;;;;12.57;5.00;;;1.60;99.90;;;;;;4439162;32;20166;-72
2022/02/01 11:22:44;;;;;;;15.50;5.63;;;1.70;99.90;;;;;;4438236;32;20555;-71
2022/02/01 11:25:26;;;;;;;10.80;4.50;;;1.70;99.90;;;;;;4438790;32;20198;-71
2022/02/01 11:30:45;;;;;;;14.97;5.20;;;1.80;99.90;;;;;;4438239;32;20190;-72
2022/02/01 11:33:13;;;;;;;11.97;5.63;;;1.80;99.90;;;;;;4437842;32;20242;-73
2022/02/01 11:35:41;;;;;;;13.73;5.83;;;1.90;99.90;;;;;;4438024;32;20170;-72
2022/02/01 11:38:16;;;;;;;16.20;5.37;;;1.80;99.90;;;;;;4437566;32;20205;-72
2022/02/01 11:40:46;;;;;;;12.20;5.03;;;1.80;99.90;;;;;;4439428;32;20253;-71
2022/02/01 11:43:35;;;;;;;13.07;5.07;;;1.80;99.90;;;;;;4438221;32;20174;-71
2022/02/01 11:46:09;;;;;;;14.13;6.00;;;1.80;99.90;;;;;;4438241;32;20178;-72
2022/02/01 11:48:40;;;;;;;13.63;5.77;;;1.90;99.90;;;;;;4438541;32;20162;-71
2022/02/01 11:51:10;;;;;;;16.50;5.63;;;1.90;99.90;;;;;;4439598;32;20600;-71
2022/02/01 11:53:44;;;;;;;10.83;4.87;;;1.90;99.90;;;;;;4438886;32;20204;-71
2022/02/01 11:56:17;;;;;;;13.33;5.07;;;1.80;99.90;;;;;;4437967;32;20193;-71
2022/02/01 11:58:46;;;;;;;15.73;5.43;;;1.80;99.90;;;;;;4439619;32;20490;-70
2022/02/01 12:01:31;;;;;;;14.67;5.97;;;1.80;99.90;;;;;;4442765;32;20261;-69
2022/02/01 12:04:11;;;;;;;15.13;5.57;;;1.70;99.90;;;;;;4455272;32;20203;-70
2022/02/01 12:06:43;;;;;;;13.60;5.30;;;1.90;99.90;;;;;;4470516;32;20166;-70
2022/02/01 12:09:19;;;;;;;15.60;5.40;;;1.80;99.90;;;;;;4457681;32;20394;-71
2022/02/01 12:11:53;;;;;;;14.73;5.57;;;1.80;99.90;;;;;;4455024;32;20534;-71
2022/02/01 12:14:20;;;;;;;15.83;5.70;;;1.80;99.90;;;;;;4451870;32;20221;-71
2022/02/01 12:16:51;;;;;;;17.50;6.10;;;1.70;99.90;;;;;;4446139;32;20181;-71
2022/02/01 12:19:30;;;;;;;13.53;5.50;;;1.70;99.90;;;;;;4438445;32;20201;-71
2022/02/01 12:22:31;;;;;;;14.77;6.17;;;1.70;99.90;;;;;;4440711;32;20158;-71
2022/02/01 12:25:08;;;;;;;14.17;5.47;;;1.80;99.90;;;;;;4439393;32;20221;-71
2022/02/01 12:27:37;;;;;;;13.77;5.60;;;1.90;99.90;;;;;;4438534;32;20536;-70
2022/02/01 12:30:06;;;;;;;15.97;5.00;;;1.80;99.90;;;;;;4438125;32;20167;-70
2022/02/01 12:32:34;;;;;;;7.50;3.93;;;1.80;99.90;;;;;;4438864;32;20168;-70
2022/02/01 12:35:03;;;;;;;12.97;4.93;;;1.80;99.90;;;;;;4439235;32;20178;-70
2022/02/01 12:37:31;;;;;;;12.17;4.30;;;1.80;99.90;;;;;;4439074;32;20240;-71
2022/02/01 12:40:04;;;;;;;11.70;4.37;;;1.80;99.90;;;;;;4437244;32;20181;-71
2022/02/01 12:42:46;;;;;;;13.93;4.87;;;1.90;99.90;;;;;;4439190;32;20174;-70
2022/02/01 12:48:04;;;;;;;11.40;4.70;;;1.90;99.90;;;;;;4438311;32;20231;-71
2022/02/01 12:50:31;;;;;;;10.57;4.40;;;1.90;99.90;;;;;;4437431;32;20166;-70
2022/02/01 12:53:02;;;;;;;13.63;5.17;;;2.00;99.90;;;;;;4438535;32;20190;-71
2022/02/01 12:55:29;;;;;;;16.00;4.53;;;2.00;99.90;;;;;;4439255;32;20193;-70
2022/02/01 12:58:12;;;;;;;10.83;4.83;;;2.00;99.90;;;;;;4438871;32;20175;-70
2022/02/01 13:00:40;;;;;;;11.80;5.30;;;2.00;99.90;;;;;;4438447;32;20612;-71
2022/02/01 13:03:08;;;;;;;15.27;5.80;;;1.90;99.90;;;;;;4438124;32;20183;-71
2022/02/01 13:05:35;;;;;;;14.13;5.73;;;1.90;99.90;;;;;;4437666;32;20166;-70
2022/02/01 13:08:37;;;;;;;11.63;5.50;;;1.90;99.90;;;;;;4440924;32;20182;-70
2022/02/01 13:21:36;;;;;;;14.93;6.63;;;1.80;99.90;;;;;;4457570;32;20182;-70
2022/02/01 13:24:04;;;;;;;17.53;7.03;;;1.80;99.90;;;;;;4456812;32;20522;-70
2022/02/01 13:26:45;;;;;;;16.17;7.30;;;1.70;99.90;;;;;;4456507;32;20222;-70
2022/02/01 13:29:14;;;;;;;14.70;6.70;;;1.60;99.90;;;;;;4457084;32;20462;-70
2022/02/01 13:31:48;;;;;;;18.17;7.50;;;1.60;99.90;;;;;;4456671;32;20205;-70
2022/02/01 13:34:22;;;;;;;17.60;7.33;;;1.50;99.90;;;;;;4458183;32;20138;-69
2022/02/01 13:36:56;;;;;;;16.50;8.03;;;1.30;99.90;;;;;;4456864;32;20209;-70
2022/02/01 13:39:28;;;;;;;18.87;7.97;;;1.20;99.90;;;;;;4453022;32;20488;-71
2022/02/01 13:42:06;;;;;;;22.50;8.73;;;1.10;99.90;;;;;;4441581;32;20211;-70
2022/02/01 13:45:05;;;;;;;21.00;8.63;;;1.00;99.90;;;;;;4440658;32;20193;-70
2022/02/01 13:47:38;;;;;;;21.43;8.80;;;1.00;99.90;;;;;;4439044;32;20200;-69
2022/02/01 13:50:15;;;;;;;19.47;9.17;;;0.90;99.90;;;;;;4439475;32;20234;-71
2022/02/01 13:52:42;;;;;;;21.67;9.23;;;0.90;99.90;;;;;;4439814;32;20174;-69
2022/02/01 13:55:21;;;;;;;23.43;9.80;;;0.80;99.90;;;;;;4441694;32;20204;-71
2022/02/01 13:57:51;;;;;;;26.60;10.73;;;0.80;99.90;;;;;;4439220;32;20639;-70
2022/02/01 14:00:19;;;;;;;23.73;10.53;;;0.70;99.90;;;;;;4440295;32;20163;-71
2022/02/01 14:02:52;;;;;;;26.40;10.10;;;0.70;99.90;;;;;;4439651;32;20224;-69
2022/02/01 14:05:27;;;;;;;24.97;10.13;;;0.60;99.90;;;;;;4439545;32;20232;-70
2022/02/01 14:10:44;;;;;;;23.70;9.73;;;0.50;99.90;;;;;;4440658;32;20441;-71
2022/02/01 14:34:32;;;;;;;16.60;6.80;;;0.00;99.90;;;;;;4438843;32;20437;-70
2022/02/01 14:37:05;;;;;;;17.43;7.27;;;0.00;99.90;;;;;;4438904;32;20191;-70
2022/02/01 14:44:47;;;;;;;18.47;7.87;;;-0.10;99.90;;;;;;4440305;32;20180;-69
2022/02/01 14:47:23;;;;;;;18.97;7.90;;;-0.10;99.90;;;;;;4440268;32;20136;-69
2022/02/01 14:49:52;;;;;;;18.53;8.60;;;-0.10;99.90;;;;;;4438160;32;20192;-69
2022/02/01 14:52:19;;;;;;;17.67;7.80;;;-0.10;99.90;;;;;;4438219;32;20306;-69
2022/02/01 14:54:49;;;;;;;22.30;8.13;;;-0.10;99.90;;;;;;4439573;32;20170;-68
2022/02/01 15:13:48;;;;;;;20.87;8.70;;;-0.20;99.90;;;;;;4438557;32;20178;-69
2022/02/01 15:16:31;;;;;;;22.10;9.57;;;-0.20;99.90;;;;;;4440604;32;20177;-70
2022/02/01 15:18:59;;;;;;;22.40;9.33;;;-0.20;99.90;;;;;;4437882;32;20430;-70
2022/02/01 15:21:28;;;;;;;21.93;9.17;;;-0.20;99.90;;;;;;4441989;32;20519;-69
2022/02/01 15:23:55;;;;;;;27.50;9.47;;;-0.30;99.90;;;;;;4448319;32;20435;-69